Sweet, Idaho
Current Conditions -  °F | °C
As of 4:55 AM on Monday 22 Dec 2014 (Local Time) from KEUL Reporting Station
Overcast Overcast  
Wind Chill: 36°   Ceiling: 3400
Heat Index: 41°   Visibility: 10mi
Dew Point: 36°   Wind: 7mph
Humidity: 81%   Direction: 170°S
Pressure: 30.11"   Gusts: NA
Location:  43.97°N, 116.33°W
Report Text: KEUL 221155Z AUTO 17006KT 10SM FEW029 BKN034 OVC080 05/02 A3011 RMK AO1 P0001 60008 70046 10050 20050 52003
Loading
Personal Weather Stations






























Interactive Weather Map New forecast layout! Learn more

10-Day Weather Forecast

Advertisements
Track Severe Weather on mobile